Borovsk, Russia
Current Conditions -  °F | °C
As of 4:30 PM on Thursday 30 Oct 2014 (Local Time) from UUWW Reporting Station
Clear Clear  
Wind Chill: 39°   Ceiling: Unl
Heat Index: 43°   Visibility: 6mi
Dew Point: 21°   Wind: 7mph
Humidity: 42%   Direction: 220°SW
Pressure: 30.15"   Gusts: NA
Location:  55.21°N, 36.49°E
Report Text: UUWW 301330Z 22003MPS CAVOK 06/M06 Q1021 24000070 NOSIG
Loading
Personal Weather Stations






























Interactive Weather Map
Tropical Storm Tracking
New forecast layout! Learn more

10-Day Weather Forecast

Advertisements
Track Severe Weather on mobile